sensor_id;sensor_type;location;lat;lon;timestamp;pressure;altitude;pressure_sealevel;temperature;humidity
65659;BME280;60181;53.258;6.932;2024-03-23T00:52:19;101073.28;;;15.00;59.05
65659;BME280;60181;53.258;6.932;2024-03-23T00:56:31;101067.77;;;14.99;58.92
65659;BME280;60181;53.258;6.932;2024-03-23T01:00:43;101061.81;;;14.98;59.04
65659;BME280;60181;53.258;6.932;2024-03-23T01:04:55;101056.76;;;14.97;59.05
65659;BME280;60181;53.258;6.932;2024-03-23T01:09:07;101050.15;;;14.96;59.01
65659;BME280;60181;53.258;6.932;2024-03-23T01:13:19;101043.69;;;14.95;59.07
65659;BME280;60181;53.258;6.932;2024-03-23T01:17:31;101036.53;;;14.94;59.01
65659;BME280;60181;53.258;6.932;2024-03-23T01:21:43;101029.00;;;14.94;59.08
65659;BME280;60181;53.258;6.932;2024-03-23T01:25:55;101020.89;;;14.93;58.92
65659;BME280;60181;53.258;6.932;2024-03-23T01:30:07;101014.63;;;14.93;58.95
65659;BME280;60181;53.258;6.932;2024-03-23T01:34:19;101009.26;;;14.91;58.73
65659;BME280;60181;53.258;6.932;2024-03-23T01:38:31;101004.63;;;14.90;58.75
65659;BME280;60181;53.258;6.932;2024-03-23T01:42:54;101000.73;;;14.89;59.22
65659;BME280;60181;53.258;6.932;2024-03-23T01:46:55;100996.12;;;14.89;59.00
65659;BME280;60181;53.258;6.932;2024-03-23T01:51:07;100991.56;;;14.88;58.47
65659;BME280;60181;53.258;6.932;2024-03-23T01:55:19;100986.61;;;14.87;58.50
65659;BME280;60181;53.258;6.932;2024-03-23T01:59:31;100979.72;;;14.85;58.54
65659;BME280;60181;53.258;6.932;2024-03-23T02:03:43;100973.55;;;14.85;58.40
65659;BME280;60181;53.258;6.932;2024-03-23T02:07:55;100967.10;;;14.84;58.49
65659;BME280;60181;53.258;6.932;2024-03-23T02:12:07;100960.64;;;14.83;58.33
65659;BME280;60181;53.258;6.932;2024-03-23T02:16:19;100954.03;;;14.81;58.27
65659;BME280;60181;53.258;6.932;2024-03-23T02:20:31;100947.17;;;14.81;58.21
65659;BME280;60181;53.258;6.932;2024-03-23T02:24:43;100941.07;;;14.81;58.01
65659;BME280;60181;53.258;6.932;2024-03-23T02:28:55;100935.44;;;14.80;58.21
65659;BME280;60181;53.258;6.932;2024-03-23T02:33:07;100928.92;;;14.78;58.14
65659;BME280;60181;53.258;6.932;2024-03-23T02:37:19;100924.88;;;14.78;58.37
65659;BME280;60181;53.258;6.932;2024-03-23T02:41:31;100922.60;;;14.79;59.18
65659;BME280;60181;53.258;6.932;2024-03-23T02:45:43;100918.56;;;14.80;58.20
65659;BME280;60181;53.258;6.932;2024-03-23T02:49:55;100913.78;;;14.80;58.20
65659;BME280;60181;53.258;6.932;2024-03-23T02:54:07;100910.39;;;14.79;58.06
65659;BME280;60181;53.258;6.932;2024-03-23T02:58:19;100906.91;;;14.78;58.28
65659;BME280;60181;53.258;6.932;2024-03-23T03:02:31;100902.69;;;14.77;58.43
65659;BME280;60181;53.258;6.932;2024-03-23T03:06:46;100898.47;;;14.76;58.35
65659;BME280;60181;53.258;6.932;2024-03-23T03:10:55;100893.11;;;14.76;59.00
65659;BME280;60181;53.258;6.932;2024-03-23T03:15:07;100888.67;;;14.77;57.96
65659;BME280;60181;53.258;6.932;2024-03-23T03:19:19;100885.53;;;14.76;57.67
65659;BME280;60181;53.258;6.932;2024-03-23T03:23:31;100882.59;;;14.73;57.48
65659;BME280;60181;53.258;6.932;2024-03-23T03:27:43;100880.35;;;14.70;57.34
65659;BME280;60181;53.258;6.932;2024-03-23T03:31:55;100877.66;;;14.68;56.92
65659;BME280;60181;53.258;6.932;2024-03-23T03:36:07;100874.80;;;14.65;56.84
65659;BME280;60181;53.258;6.932;2024-03-23T03:40:19;100871.56;;;14.63;56.64
65659;BME280;60181;53.258;6.932;2024-03-23T03:44:31;100867.47;;;14.60;56.45
65659;BME280;60181;53.258;6.932;2024-03-23T03:48:43;100863.33;;;14.57;56.19
65659;BME280;60181;53.258;6.932;2024-03-23T03:52:55;100859.42;;;14.55;55.99
65659;BME280;60181;53.258;6.932;2024-03-23T03:57:07;100854.94;;;14.53;55.95
65659;BME280;60181;53.258;6.932;2024-03-23T04:01:19;100850.38;;;14.50;55.79
65659;BME280;60181;53.258;6.932;2024-03-23T04:05:31;100845.73;;;14.48;55.68
65659;BME280;60181;53.258;6.932;2024-03-23T04:09:43;100840.69;;;14.46;55.60
65659;BME280;60181;53.258;6.932;2024-03-23T04:13:55;100835.99;;;14.44;55.42
65659;BME280;60181;53.258;6.932;2024-03-23T04:18:07;100832.73;;;14.43;55.26
65659;BME280;60181;53.258;6.932;2024-03-23T04:22:19;100829.51;;;14.41;55.14
65659;BME280;60181;53.258;6.932;2024-03-23T04:26:40;100826.19;;;14.39;55.11
65659;BME280;60181;53.258;6.932;2024-03-23T04:30:43;100823.02;;;14.37;54.94
65659;BME280;60181;53.258;6.932;2024-03-23T04:34:55;100820.04;;;14.37;55.05
65659;BME280;60181;53.258;6.932;2024-03-23T04:39:07;100816.51;;;14.37;55.06
65659;BME280;60181;53.258;6.932;2024-03-23T04:43:19;100813.62;;;14.37;55.29
65659;BME280;60181;53.258;6.932;2024-03-23T04:47:31;100811.38;;;14.36;55.21
65659;BME280;60181;53.258;6.932;2024-03-23T04:51:43;100809.22;;;14.35;55.38
65659;BME280;60181;53.258;6.932;2024-03-23T04:55:55;100807.08;;;14.35;55.22
65659;BME280;60181;53.258;6.932;2024-03-23T05:00:07;100805.25;;;14.34;55.21
65659;BME280;60181;53.258;6.932;2024-03-23T05:04:19;100802.52;;;14.33;55.28
65659;BME280;60181;53.258;6.932;2024-03-23T05:08:31;100798.58;;;14.32;55.37
65659;BME280;60181;53.258;6.932;2024-03-23T05:12:43;100795.75;;;14.32;55.31
65659;BME280;60181;53.258;6.932;2024-03-23T05:16:55;100793.38;;;14.31;55.42
65659;BME280;60181;53.258;6.932;2024-03-23T05:21:07;100790.72;;;14.30;55.44
65659;BME280;60181;53.258;6.932;2024-03-23T05:25:19;100788.48;;;14.29;55.32
65659;BME280;60181;53.258;6.932;2024-03-23T05:29:31;100786.51;;;14.29;55.30
65659;BME280;60181;53.258;6.932;2024-03-23T05:33:43;100784.59;;;14.28;55.39
65659;BME280;60181;53.258;6.932;2024-03-23T05:37:55;100782.84;;;14.27;55.39
65659;BME280;60181;53.258;6.932;2024-03-23T05:42:07;100782.01;;;14.27;55.26
65659;BME280;60181;53.258;6.932;2024-03-23T05:46:19;100782.35;;;14.27;55.32
65659;BME280;60181;53.258;6.932;2024-03-23T05:50:31;100781.79;;;14.26;55.26
65659;BME280;60181;53.258;6.932;2024-03-23T05:54:43;100781.69;;;14.26;55.26
65659;BME280;60181;53.258;6.932;2024-03-23T05:58:55;100780.02;;;14.25;55.24
65659;BME280;60181;53.258;6.932;2024-03-23T06:03:07;100780.29;;;14.25;55.11
65659;BME280;60181;53.258;6.932;2024-03-23T06:07:19;100779.94;;;14.25;55.16
65659;BME280;60181;53.258;6.932;2024-03-23T06:11:31;100779.11;;;14.25;55.08
65659;BME280;60181;53.258;6.932;2024-03-23T06:15:43;100777.40;;;14.26;55.12
65659;BME280;60181;53.258;6.932;2024-03-23T06:19:55;100775.17;;;14.26;54.96
65659;BME280;60181;53.258;6.932;2024-03-23T06:24:07;100773.71;;;14.26;55.05
65659;BME280;60181;53.258;6.932;2024-03-23T06:28:19;100772.74;;;14.29;55.42
65659;BME280;60181;53.258;6.932;2024-03-23T06:32:31;100773.74;;;14.35;55.56
65659;BME280;60181;53.258;6.932;2024-03-23T06:36:43;100774.37;;;14.42;55.96
65659;BME280;60181;53.258;6.932;2024-03-23T06:40:55;100774.79;;;14.48;55.60
65659;BME280;60181;53.258;6.932;2024-03-23T06:45:07;100774.84;;;14.52;55.75
65659;BME280;60181;53.258;6.932;2024-03-23T06:49:19;100774.06;;;14.57;55.94
65659;BME280;60181;53.258;6.932;2024-03-23T06:53:31;100770.62;;;14.59;54.92
65659;BME280;60181;53.258;6.932;2024-03-23T06:57:43;100767.75;;;14.60;54.54
65659;BME280;60181;53.258;6.932;2024-03-23T07:01:55;100765.17;;;14.59;54.22
65659;BME280;60181;53.258;6.932;2024-03-23T07:06:09;100762.70;;;14.58;54.04
65659;BME280;60181;53.258;6.932;2024-03-23T07:10:19;100760.30;;;14.57;54.35
65659;BME280;60181;53.258;6.932;2024-03-23T07:14:31;100758.75;;;14.59;55.17
65659;BME280;60181;53.258;6.932;2024-03-23T07:18:43;100757.40;;;14.63;56.16
65659;BME280;60181;53.258;6.932;2024-03-23T07:22:55;100755.75;;;14.69;56.26
65659;BME280;60181;53.258;6.932;2024-03-23T07:27:07;100755.16;;;14.75;56.29
65659;BME280;60181;53.258;6.932;2024-03-23T07:31:19;100755.30;;;14.80;56.38
65659;BME280;60181;53.258;6.932;2024-03-23T07:35:31;100755.41;;;14.84;56.65
65659;BME280;60181;53.258;6.932;2024-03-23T07:39:43;100754.03;;;14.86;55.56
65659;BME280;60181;53.258;6.932;2024-03-23T07:43:55;100754.36;;;14.86;54.74
65659;BME280;60181;53.258;6.932;2024-03-23T07:48:07;100756.34;;;14.87;56.21
65659;BME280;60181;53.258;6.932;2024-03-23T07:52:19;100757.67;;;14.87;54.59
65659;BME280;60181;53.258;6.932;2024-03-23T07:56:31;100756.09;;;14.86;54.55
65659;BME280;60181;53.258;6.932;2024-03-23T08:00:43;100753.09;;;14.85;55.02
65659;BME280;60181;53.258;6.932;2024-03-23T08:04:55;100750.64;;;14.86;56.38
65659;BME280;60181;53.258;6.932;2024-03-23T08:09:07;100748.63;;;14.89;55.87
65659;BME280;60181;53.258;6.932;2024-03-23T08:13:19;100746.34;;;14.94;55.95
65659;BME280;60181;53.258;6.932;2024-03-23T08:17:31;100743.34;;;15.00;55.86
65659;BME280;60181;53.258;6.932;2024-03-23T08:21:43;100741.75;;;15.07;55.76
65659;BME280;60181;53.258;6.932;2024-03-23T08:25:57;100740.41;;;15.14;55.71
65659;BME280;60181;53.258;6.932;2024-03-23T08:30:07;100739.50;;;15.21;55.80
65659;BME280;60181;53.258;6.932;2024-03-23T08:34:19;100739.29;;;15.28;55.84
65659;BME280;60181;53.258;6.932;2024-03-23T08:38:31;100739.43;;;15.34;56.12
65659;BME280;60181;53.258;6.932;2024-03-23T08:42:43;100739.26;;;15.36;56.59
65659;BME280;60181;53.258;6.932;2024-03-23T08:46:57;100738.37;;;15.38;57.01
65659;BME280;60181;53.258;6.932;2024-03-23T08:51:07;100736.08;;;15.40;56.80
65659;BME280;60181;53.258;6.932;2024-03-23T08:55:19;100734.06;;;15.43;56.80
65659;BME280;60181;53.258;6.932;2024-03-23T08:59:31;100733.01;;;15.48;56.83
65659;BME280;60181;53.258;6.932;2024-03-23T09:03:43;100731.72;;;15.53;56.88
65659;BME280;60181;53.258;6.932;2024-03-23T09:07:55;100729.67;;;15.57;56.98
65659;BME280;60181;53.258;6.932;2024-03-23T09:12:07;100727.06;;;15.62;57.09
65659;BME280;60181;53.258;6.932;2024-03-23T09:16:18;100723.95;;;15.66;57.18
65659;BME280;60181;53.258;6.932;2024-03-23T09:20:33;100720.00;;;15.70;57.32
65659;BME280;60181;53.258;6.932;2024-03-23T09:24:42;100717.13;;;15.73;57.46
65659;BME280;60181;53.258;6.932;2024-03-23T09:28:54;100714.11;;;15.76;57.62
65659;BME280;60181;53.258;6.932;2024-03-23T09:33:06;100710.90;;;15.78;57.73
65659;BME280;60181;53.258;6.932;2024-03-23T09:37:18;100707.01;;;15.81;57.77
65659;BME280;60181;53.258;6.932;2024-03-23T09:41:30;100702.25;;;15.83;57.99
65659;BME280;60181;53.258;6.932;2024-03-23T09:45:42;100697.99;;;15.85;62.26
65659;BME280;60181;53.258;6.932;2024-03-23T09:49:54;100694.12;;;15.87;61.39
65659;BME280;60181;53.258;6.932;2024-03-23T09:54:06;100690.56;;;15.89;61.06
65659;BME280;60181;53.258;6.932;2024-03-23T09:58:18;100687.59;;;15.90;60.84
65659;BME280;60181;53.258;6.932;2024-03-23T10:02:30;100692.39;;;15.90;60.84
65659;BME280;60181;53.258;6.932;2024-03-23T10:06:42;100698.16;;;15.89;60.99
65659;BME280;60181;53.258;6.932;2024-03-23T10:10:54;100702.80;;;15.87;60.94
65659;BME280;60181;53.258;6.932;2024-03-23T10:15:10;100704.27;;;15.85;60.69
65659;BME280;60181;53.258;6.932;2024-03-23T10:19:29;100703.62;;;15.85;60.88
65659;BME280;60181;53.258;6.932;2024-03-23T10:23:31;100702.29;;;15.85;60.96
65659;BME280;60181;53.258;6.932;2024-03-23T10:27:42;100700.47;;;15.86;60.60
65659;BME280;60181;53.258;6.932;2024-03-23T10:31:56;100696.94;;;15.90;60.42
65659;BME280;60181;53.258;6.932;2024-03-23T10:36:07;100693.98;;;15.94;60.09
65659;BME280;60181;53.258;6.932;2024-03-23T10:40:19;100689.45;;;15.97;60.04
65659;BME280;60181;53.258;6.932;2024-03-23T10:44:31;100686.50;;;16.00;60.05
65659;BME280;60181;53.258;6.932;2024-03-23T10:48:43;100682.14;;;16.03;59.97
65659;BME280;60181;53.258;6.932;2024-03-23T10:52:54;100678.67;;;16.05;59.99
65659;BME280;60181;53.258;6.932;2024-03-23T10:57:08;100674.70;;;16.06;60.01
65659;BME280;60181;53.258;6.932;2024-03-23T11:01:18;100671.39;;;16.08;60.00
65659;BME280;60181;53.258;6.932;2024-03-23T11:05:31;100669.42;;;16.08;60.13
65659;BME280;60181;53.258;6.932;2024-03-23T11:09:43;100672.71;;;16.07;60.39
65659;BME280;60181;53.258;6.932;2024-03-23T11:13:54;100674.95;;;16.04;60.53
65659;BME280;60181;53.258;6.932;2024-03-23T11:18:07;100678.90;;;16.02;60.40
65659;BME280;60181;53.258;6.932;2024-03-23T11:22:37;100684.10;;;16.03;60.13
65659;BME280;60181;53.258;6.932;2024-03-23T11:26:30;100686.91;;;16.03;60.44
65659;BME280;60181;53.258;6.932;2024-03-23T11:30:42;100691.14;;;16.01;60.73
65659;BME280;60181;53.258;6.932;2024-03-23T11:34:54;100696.15;;;15.99;60.44
65659;BME280;60181;53.258;6.932;2024-03-23T11:39:15;100694.81;;;15.96;60.32
65659;BME280;60181;53.258;6.932;2024-03-23T11:43:19;100692.00;;;15.95;60.14
65659;BME280;60181;53.258;6.932;2024-03-23T11:47:30;100690.27;;;15.95;60.07
65659;BME280;60181;53.258;6.932;2024-03-23T11:51:42;100688.95;;;15.96;59.89
65659;BME280;60181;53.258;6.932;2024-03-23T11:55:58;100686.31;;;15.98;59.88
65659;BME280;60181;53.258;6.932;2024-03-23T12:04:27;100683.94;;;16.01;59.84
65659;BME280;60181;53.258;6.932;2024-03-23T12:08:34;100681.79;;;16.03;59.71
65659;BME280;60181;53.258;6.932;2024-03-23T12:12:42;100678.50;;;16.06;59.83
65659;BME280;60181;53.258;6.932;2024-03-23T12:16:54;100676.12;;;16.08;59.99
65659;BME280;60181;53.258;6.932;2024-03-23T12:21:06;100673.72;;;16.08;62.30
65659;BME280;60181;53.258;6.932;2024-03-23T12:25:18;100667.46;;;16.13;63.36
65659;BME280;60181;53.258;6.932;2024-03-23T12:29:31;100662.25;;;16.17;63.61
65659;BME280;60181;53.258;6.932;2024-03-23T12:33:42;100655.91;;;16.19;63.62
65659;BME280;60181;53.258;6.932;2024-03-23T12:37:54;100652.09;;;16.21;63.53
65659;BME280;60181;53.258;6.932;2024-03-23T12:42:06;100651.76;;;16.23;63.42
65659;BME280;60181;53.258;6.932;2024-03-23T12:46:18;100659.14;;;16.24;63.48
65659;BME280;60181;53.258;6.932;2024-03-23T12:50:30;100660.46;;;16.23;63.69
65659;BME280;60181;53.258;6.932;2024-03-23T12:54:42;100662.01;;;16.21;63.78
65659;BME280;60181;53.258;6.932;2024-03-23T12:58:54;100660.71;;;16.19;63.67
65659;BME280;60181;53.258;6.932;2024-03-23T13:03:06;100658.78;;;16.19;63.11
65659;BME280;60181;53.258;6.932;2024-03-23T13:07:19;100656.06;;;16.20;62.63
65659;BME280;60181;53.258;6.932;2024-03-23T13:11:30;100654.85;;;16.21;62.48
65659;BME280;60181;53.258;6.932;2024-03-23T13:15:42;100654.07;;;16.20;62.37
65659;BME280;60181;53.258;6.932;2024-03-23T13:19:54;100655.56;;;16.20;62.33
65659;BME280;60181;53.258;6.932;2024-03-23T13:24:06;100658.06;;;16.19;62.42
65659;BME280;60181;53.258;6.932;2024-03-23T13:28:19;100658.04;;;16.20;62.12
65659;BME280;60181;53.258;6.932;2024-03-23T13:32:30;100655.74;;;16.21;61.97
65659;BME280;60181;53.258;6.932;2024-03-23T13:36:45;100654.02;;;16.23;62.21
65659;BME280;60181;53.258;6.932;2024-03-23T13:40:57;100654.75;;;16.22;62.74
65659;BME280;60181;53.258;6.932;2024-03-23T13:45:06;100657.64;;;16.20;62.55
65659;BME280;60181;53.258;6.932;2024-03-23T13:49:25;100656.48;;;16.19;62.14
65659;BME280;60181;53.258;6.932;2024-03-23T13:53:30;100652.10;;;16.20;62.06
65659;BME280;60181;53.258;6.932;2024-03-23T13:57:42;100649.45;;;16.21;61.96
65659;BME280;60181;53.258;6.932;2024-03-23T14:01:54;100646.23;;;16.22;62.02
65659;BME280;60181;53.258;6.932;2024-03-23T14:06:07;100646.47;;;16.21;62.22
65659;BME280;60181;53.258;6.932;2024-03-23T14:10:18;100648.47;;;16.20;62.23
65659;BME280;60181;53.258;6.932;2024-03-23T14:14:30;100648.63;;;16.20;62.09
65659;BME280;60181;53.258;6.932;2024-03-23T14:18:42;100645.73;;;16.20;61.99
65659;BME280;60181;53.258;6.932;2024-03-23T14:22:54;100643.66;;;16.20;62.02
65659;BME280;60181;53.258;6.932;2024-03-23T14:27:06;100640.77;;;16.20;62.00
65659;BME280;60181;53.258;6.932;2024-03-23T14:31:18;100639.22;;;16.19;62.05
65659;BME280;60181;53.258;6.932;2024-03-23T14:35:30;100639.45;;;16.18;62.02
65659;BME280;60181;53.258;6.932;2024-03-23T14:39:42;100640.43;;;16.17;62.13
65659;BME280;60181;53.258;6.932;2024-03-23T14:43:54;100640.67;;;16.16;62.12
65659;BME280;60181;53.258;6.932;2024-03-23T14:48:06;100638.79;;;16.15;62.08
65659;BME280;60181;53.258;6.932;2024-03-23T14:52:18;100637.47;;;16.14;62.11
65659;BME280;60181;53.258;6.932;2024-03-23T14:56:30;100635.99;;;16.13;62.19
65659;BME280;60181;53.258;6.932;2024-03-23T15:00:42;100631.98;;;16.11;62.22
65659;BME280;60181;53.258;6.932;2024-03-23T15:04:54;100631.83;;;16.10;62.28
65659;BME280;60181;53.258;6.932;2024-03-23T15:09:06;100630.42;;;16.08;62.31
65659;BME280;60181;53.258;6.932;2024-03-23T15:13:18;100629.83;;;16.07;62.39
65659;BME280;60181;53.258;6.932;2024-03-23T15:17:30;100630.49;;;16.04;62.48
65659;BME280;60181;53.258;6.932;2024-03-23T15:21:42;100627.11;;;16.03;62.45
65659;BME280;60181;53.258;6.932;2024-03-23T15:25:54;100621.40;;;16.02;62.38
65659;BME280;60181;53.258;6.932;2024-03-23T15:30:06;100616.19;;;16.01;62.43
65659;BME280;60181;53.258;6.932;2024-03-23T15:34:19;100611.83;;;16.00;62.43
65659;BME280;60181;53.258;6.932;2024-03-23T15:38:33;100608.76;;;16.00;62.42
65659;BME280;60181;53.258;6.932;2024-03-23T15:42:42;100604.86;;;15.99;62.43
65659;BME280;60181;53.258;6.932;2024-03-23T15:46:54;100601.33;;;15.98;62.44
65659;BME280;60181;53.258;6.932;2024-03-23T15:51:06;100597.93;;;15.97;62.46
65659;BME280;60181;53.258;6.932;2024-03-23T15:55:18;100595.28;;;15.96;62.48
65659;BME280;60181;53.258;6.932;2024-03-23T15:59:30;100592.64;;;15.95;62.50
65659;BME280;60181;53.258;6.932;2024-03-23T16:03:42;100591.05;;;15.94;62.52
65659;BME280;60181;53.258;6.932;2024-03-23T16:07:54;100588.57;;;15.93;62.52
65659;BME280;60181;53.258;6.932;2024-03-23T16:12:06;100586.60;;;15.92;62.63
65659;BME280;60181;53.258;6.932;2024-03-23T16:16:18;100584.03;;;15.91;62.58
65659;BME280;60181;53.258;6.932;2024-03-23T16:20:30;100582.05;;;15.90;62.61
65659;BME280;60181;53.258;6.932;2024-03-23T16:24:42;100580.22;;;15.88;62.60
65659;BME280;60181;53.258;6.932;2024-03-23T16:28:54;100578.74;;;15.87;62.60
65659;BME280;60181;53.258;6.932;2024-03-23T16:33:06;100578.33;;;15.86;62.73
65659;BME280;60181;53.258;6.932;2024-03-23T16:37:18;100576.29;;;15.85;62.80
65659;BME280;60181;53.258;6.932;2024-03-23T16:41:30;100573.99;;;15.83;62.77
65659;BME280;60181;53.258;6.932;2024-03-23T16:45:42;100572.56;;;15.82;62.71
65659;BME280;60181;53.258;6.932;2024-03-23T16:49:54;100572.09;;;15.82;62.71
65659;BME280;60181;53.258;6.932;2024-03-23T16:54:06;100572.83;;;15.81;62.73
65659;BME280;60181;53.258;6.932;2024-03-23T16:58:18;100572.41;;;15.81;62.79
65659;BME280;60181;53.258;6.932;2024-03-23T17:02:30;100571.83;;;15.82;63.77
65659;BME280;60181;53.258;6.932;2024-03-23T17:06:42;100571.17;;;15.83;63.57
65659;BME280;60181;53.258;6.932;2024-03-23T17:10:57;100570.11;;;15.83;63.51
65659;BME280;60181;53.258;6.932;2024-03-23T17:15:06;100569.53;;;15.81;63.62
65659;BME280;60181;53.258;6.932;2024-03-23T17:19:18;100569.26;;;15.80;63.74
65659;BME280;60181;53.258;6.932;2024-03-23T17:23:30;100569.84;;;15.78;63.73
65659;BME280;60181;53.258;6.932;2024-03-23T17:27:42;100569.11;;;15.77;63.69
65659;BME280;60181;53.258;6.932;2024-03-23T17:31:54;100567.43;;;15.76;63.73
65659;BME280;60181;53.258;6.932;2024-03-23T17:36:06;100567.19;;;15.74;63.82
65659;BME280;60181;53.258;6.932;2024-03-23T17:40:18;100567.68;;;15.72;63.86
65659;BME280;60181;53.258;6.932;2024-03-23T17:44:30;100567.08;;;15.70;63.88
65659;BME280;60181;53.258;6.932;2024-03-23T17:48:42;100566.41;;;15.68;63.86
65659;BME280;60181;53.258;6.932;2024-03-23T17:52:54;100566.25;;;15.66;63.86
65659;BME280;60181;53.258;6.932;2024-03-23T17:57:06;100567.08;;;15.65;63.85
65659;BME280;60181;53.258;6.932;2024-03-23T18:01:18;100567.72;;;15.63;63.86
65659;BME280;60181;53.258;6.932;2024-03-23T18:05:30;100567.80;;;15.62;63.87
65659;BME280;60181;53.258;6.932;2024-03-23T18:09:42;100567.89;;;15.61;63.86
65659;BME280;60181;53.258;6.932;2024-03-23T18:13:54;100568.38;;;15.60;63.89
65659;BME280;60181;53.258;6.932;2024-03-23T18:18:06;100568.87;;;15.58;63.83
65659;BME280;60181;53.258;6.932;2024-03-23T18:22:18;100568.20;;;15.57;63.87
65659;BME280;60181;53.258;6.932;2024-03-23T18:26:30;100568.77;;;15.57;63.85
65659;BME280;60181;53.258;6.932;2024-03-23T18:30:42;100568.87;;;15.56;63.86
65659;BME280;60181;53.258;6.932;2024-03-23T18:34:54;100567.63;;;15.55;63.89
65659;BME280;60181;53.258;6.932;2024-03-23T18:39:06;100566.13;;;15.54;63.89
65659;BME280;60181;53.258;6.932;2024-03-23T18:43:18;100564.37;;;15.53;63.90
65659;BME280;60181;53.258;6.932;2024-03-23T18:47:30;100563.40;;;15.53;63.92
65659;BME280;60181;53.258;6.932;2024-03-23T18:51:42;100562.66;;;15.53;63.93
65659;BME280;60181;53.258;6.932;2024-03-23T18:55:54;100560.83;;;15.52;63.95
65659;BME280;60181;53.258;6.932;2024-03-23T19:00:06;100557.95;;;15.52;63.95
65659;BME280;60181;53.258;6.932;2024-03-23T19:04:18;100555.72;;;15.52;64.13
65659;BME280;60181;53.258;6.932;2024-03-23T19:08:30;100552.15;;;15.53;63.44
65659;BME280;60181;53.258;6.932;2024-03-23T19:12:42;100549.11;;;15.52;63.87
65659;BME280;60181;53.258;6.932;2024-03-23T19:16:54;100545.54;;;15.50;64.20
65659;BME280;60181;53.258;6.932;2024-03-23T19:21:06;100542.16;;;15.47;64.06
65659;BME280;60181;53.258;6.932;2024-03-23T19:25:18;100538.76;;;15.44;64.12
65659;BME280;60181;53.258;6.932;2024-03-23T19:29:30;100538.03;;;15.41;64.40
65659;BME280;60181;53.258;6.932;2024-03-23T19:33:42;100536.03;;;15.42;64.10
65659;BME280;60181;53.258;6.932;2024-03-23T19:37:54;100534.70;;;15.43;63.99
65659;BME280;60181;53.258;6.932;2024-03-23T19:42:06;100534.72;;;15.44;64.05
65659;BME280;60181;53.258;6.932;2024-03-23T19:46:18;100533.40;;;15.45;64.08
65659;BME280;60181;53.258;6.932;2024-03-23T19:50:30;100533.58;;;15.46;64.02
65659;BME280;60181;53.258;6.932;2024-03-23T19:54:42;100530.19;;;15.46;64.04
65659;BME280;60181;53.258;6.932;2024-03-23T19:58:54;100527.88;;;15.46;63.98
65659;BME280;60181;53.258;6.932;2024-03-23T20:03:06;100525.73;;;15.46;63.97
65659;BME280;60181;53.258;6.932;2024-03-23T20:07:18;100524.01;;;15.46;64.00
65659;BME280;60181;53.258;6.932;2024-03-23T20:11:30;100521.09;;;15.46;63.95
65659;BME280;60181;53.258;6.932;2024-03-23T20:15:50;100516.65;;;15.45;63.94
65659;BME280;60181;53.258;6.932;2024-03-23T20:19:54;100512.38;;;15.45;63.94
65659;BME280;60181;53.258;6.932;2024-03-23T20:24:06;100509.56;;;15.45;63.91
65659;BME280;60181;53.258;6.932;2024-03-23T20:28:18;100506.27;;;15.45;63.90
65659;BME280;60181;53.258;6.932;2024-03-23T20:32:30;100503.12;;;15.45;63.89
65659;BME280;60181;53.258;6.932;2024-03-23T20:36:42;100499.83;;;15.45;63.92
65659;BME280;60181;53.258;6.932;2024-03-23T20:40:54;100496.25;;;15.44;63.94
65659;BME280;60181;53.258;6.932;2024-03-23T20:45:06;100492.55;;;15.44;63.92
65659;BME280;60181;53.258;6.932;2024-03-23T20:49:18;100489.33;;;15.44;63.93
65659;BME280;60181;53.258;6.932;2024-03-23T20:53:30;100486.11;;;15.43;63.96
65659;BME280;60181;53.258;6.932;2024-03-23T20:57:42;100483.13;;;15.43;64.00
65659;BME280;60181;53.258;6.932;2024-03-23T21:01:54;100480.16;;;15.43;63.94
65659;BME280;60181;53.258;6.932;2024-03-23T21:06:06;100477.70;;;15.42;63.99
65659;BME280;60181;53.258;6.932;2024-03-23T21:10:18;100475.78;;;15.42;63.97
65659;BME280;60181;53.258;6.932;2024-03-23T21:14:30;100473.32;;;15.42;64.01
65659;BME280;60181;53.258;6.932;2024-03-23T21:18:42;100470.09;;;15.42;64.13
65659;BME280;60181;53.258;6.932;2024-03-23T21:22:54;100464.48;;;15.42;64.08
65659;BME280;60181;53.258;6.932;2024-03-23T21:27:06;100459.70;;;15.42;64.15
65659;BME280;60181;53.258;6.932;2024-03-23T21:31:18;100454.81;;;15.42;64.18
65659;BME280;60181;53.258;6.932;2024-03-23T21:35:30;100448.72;;;15.42;64.19
65659;BME280;60181;53.258;6.932;2024-03-23T21:39:42;100443.85;;;15.41;64.17
65659;BME280;60181;53.258;6.932;2024-03-23T21:43:54;100438.15;;;15.41;64.17
65659;BME280;60181;53.258;6.932;2024-03-23T21:48:06;100432.28;;;15.40;64.14
65659;BME280;60181;53.258;6.932;2024-03-23T21:52:18;100426.26;;;15.39;64.17
65659;BME280;60181;53.258;6.932;2024-03-23T21:56:30;100419.42;;;15.38;64.15
65659;BME280;60181;53.258;6.932;2024-03-23T22:00:42;100412.82;;;15.38;64.14
65659;BME280;60181;53.258;6.932;2024-03-23T22:04:54;100406.28;;;15.38;64.13
65659;BME280;60181;53.258;6.932;2024-03-23T22:09:06;100399.86;;;15.37;64.12
65659;BME280;60181;53.258;6.932;2024-03-23T22:13:18;100393.50;;;15.37;64.20
65659;BME280;60181;53.258;6.932;2024-03-23T22:17:29;100386.47;;;15.37;61.75
65659;BME280;60181;53.258;6.932;2024-03-23T22:21:41;100377.48;;;15.33;60.93
65659;BME280;60181;53.258;6.932;2024-03-23T22:25:53;100367.97;;;15.28;60.55
65659;BME280;60181;53.258;6.932;2024-03-23T22:30:06;100358.72;;;15.23;59.93
65659;BME280;60181;53.258;6.932;2024-03-23T22:34:17;100349.06;;;15.19;59.41
65659;BME280;60181;53.258;6.932;2024-03-23T22:38:29;100339.42;;;15.15;59.21
65659;BME280;60181;53.258;6.932;2024-03-23T22:42:41;100330.16;;;15.12;60.09
65659;BME280;60181;53.258;6.932;2024-03-23T22:46:53;100322.41;;;15.08;59.98
65659;BME280;60181;53.258;6.932;2024-03-23T22:51:05;100317.78;;;15.05;59.35